KMKO

Muskogee-Davis Regional Airport

Muskogee, Oklahoma, USA
METAR KMKO 212053Z AUTO 18005KT 10SM CLR 18/04 A3027 RMK AO2 SLP250 T01830039 56031
Observed Flight Rules
Oct-21 @ 20:53 UTC (27 minutes ago) Visual Flight Rules
Wind Visibility Clouds
180° at 5 knots 10 miles
  • Clear skies
Temperatures Readings
Current 18°C / 64°F
Dewpoint 4°C / 39°F
Humidity 40%
Altimeter 30.27" Hg
Pressure 1025 hPa
Elevation 185
METAR KMKO 212053Z AUTO 18005KT 10SM CLR 18/04 A3027 RMK AO2 SLP250 T01830039 56031
Observed Flight Rules
Oct-21 @ 20:53 UTC
(27 minutes ago)
VFR
Wind Visibility
180° at 5 knots 10 miles
Clouds
  • Clear skies
Temperature Dewpoint
18°C / 64°F 4°C / 39°F
Humidity Altimeter Pressure
40% 30.27" Hg 1025 hPa